sensor_id;sensor_type;location;lat;lon;timestamp;pressure;altitude;pressure_sealevel;temperature
64600;BMP280;6553;48.412;9.514;2022-08-18T00:01:50;72220.31;;;25.03
64600;BMP280;6553;48.412;9.514;2022-08-18T00:04:18;72222.06;;;25.02
64600;BMP280;6553;48.412;9.514;2022-08-18T00:06:44;72211.56;;;25.00
64600;BMP280;6553;48.412;9.514;2022-08-18T00:09:10;72213.69;;;25.02
64600;BMP280;6553;48.412;9.514;2022-08-18T00:11:41;72211.56;;;25.00
64600;BMP280;6553;48.412;9.514;2022-08-18T00:14:18;72213.69;;;25.02
64600;BMP280;6553;48.412;9.514;2022-08-18T00:16:44;72215.41;;;25.01
64600;BMP280;6553;48.412;9.514;2022-08-18T00:19:10;72214.88;;;25.01
64600;BMP280;6553;48.412;9.514;2022-08-18T00:21:36;72209.84;;;25.01
64600;BMP280;6553;48.412;9.514;2022-08-18T00:24:03;72212.09;;;25.01
64600;BMP280;6553;48.412;9.514;2022-08-18T00:26:29;72212.75;;;24.99
64600;BMP280;6553;48.412;9.514;2022-08-18T00:28:55;72216.06;;;24.99
64600;BMP280;6553;48.412;9.514;2022-08-18T00:31:21;72215.94;;;25.02
64600;BMP280;6553;48.412;9.514;2022-08-18T00:33:46;72215.53;;;24.99
64600;BMP280;6553;48.412;9.514;2022-08-18T00:36:12;72213.28;;;24.99
64600;BMP280;6553;48.412;9.514;2022-08-18T00:38:38;72213.28;;;24.99
64600;BMP280;6553;48.412;9.514;2022-08-18T00:41:05;72215.41;;;25.01
64600;BMP280;6553;48.412;9.514;2022-08-18T00:43:40;72221.00;;;25.01
64600;BMP280;6553;48.412;9.514;2022-08-18T00:46:23;72211.00;;;25.00
64600;BMP280;6553;48.412;9.514;2022-08-18T00:48:50;72213.28;;;24.99
64600;BMP280;6553;48.412;9.514;2022-08-18T00:51:49;72212.22;;;24.98
64600;BMP280;6553;48.412;9.514;2022-08-18T00:54:23;72215.53;;;24.99
64600;BMP280;6553;48.412;9.514;2022-08-18T00:56:58;72215.53;;;24.99
64600;BMP280;6553;48.412;9.514;2022-08-18T00:59:38;72208.22;;;25.00
64600;BMP280;6553;48.412;9.514;2022-08-18T01:02:27;72211.16;;;24.97
64600;BMP280;6553;48.412;9.514;2022-08-18T01:05:02;72212.22;;;24.98
64600;BMP280;6553;48.412;9.514;2022-08-18T01:07:44;72210.63;;;24.97
64600;BMP280;6553;48.412;9.514;2022-08-18T01:10:12;72212.75;;;24.99
64600;BMP280;6553;48.412;9.514;2022-08-18T01:12:48;72213.28;;;24.99
64600;BMP280;6553;48.412;9.514;2022-08-18T01:15:17;72211.16;;;24.97
64600;BMP280;6553;48.412;9.514;2022-08-18T01:17:44;72204.50;;;24.96
64600;BMP280;6553;48.412;9.514;2022-08-18T01:20:39;72211.69;;;24.98
64600;BMP280;6553;48.412;9.514;2022-08-18T01:23:26;72211.16;;;24.97
64600;BMP280;6553;48.412;9.514;2022-08-18T01:25:52;72207.28;;;24.96
64600;BMP280;6553;48.412;9.514;2022-08-18T01:28:36;72210.63;;;24.97
64600;BMP280;6553;48.412;9.514;2022-08-18T01:31:03;72211.81;;;24.95
64600;BMP280;6553;48.412;9.514;2022-08-18T01:33:42;72211.69;;;24.98
64600;BMP280;6553;48.412;9.514;2022-08-18T01:36:20;72208.50;;;24.95
64600;BMP280;6553;48.412;9.514;2022-08-18T01:38:51;72211.81;;;24.95
64600;BMP280;6553;48.412;9.514;2022-08-18T01:41:19;72207.84;;;24.97
64600;BMP280;6553;48.412;9.514;2022-08-18T01:43:47;72208.50;;;24.95
64600;BMP280;6553;48.412;9.514;2022-08-18T01:46:18;72211.69;;;24.98
64600;BMP280;6553;48.412;9.514;2022-08-18T01:48:46;72211.16;;;24.97
64600;BMP280;6553;48.412;9.514;2022-08-18T01:51:14;72205.69;;;24.95
64600;BMP280;6553;48.412;9.514;2022-08-18T01:53:41;72207.97;;;24.94
64600;BMP280;6553;48.412;9.514;2022-08-18T01:56:07;72207.84;;;24.97
64600;BMP280;6553;48.412;9.514;2022-08-18T01:58:35;72207.44;;;24.94
64600;BMP280;6553;48.412;9.514;2022-08-18T02:01:02;72215.16;;;24.96
64600;BMP280;6553;48.412;9.514;2022-08-18T02:03:36;72208.50;;;24.95
64600;BMP280;6553;48.412;9.514;2022-08-18T02:06:08;72209.56;;;24.96
64600;BMP280;6553;48.412;9.514;2022-08-18T02:08:35;72203.56;;;24.93
64600;BMP280;6553;48.412;9.514;2022-08-18T02:11:01;72207.44;;;24.94
64600;BMP280;6553;48.412;9.514;2022-08-18T02:13:28;72201.84;;;24.94
64600;BMP280;6553;48.412;9.514;2022-08-18T02:15:55;72206.38;;;24.93
64600;BMP280;6553;48.412;9.514;2022-08-18T02:18:25;72208.50;;;24.95
64600;BMP280;6553;48.412;9.514;2022-08-18T02:20:57;72207.44;;;24.94
64600;BMP280;6553;48.412;9.514;2022-08-18T02:23:23;72204.78;;;24.91
64600;BMP280;6553;48.412;9.514;2022-08-18T02:25:49;72199.19;;;24.91
64600;BMP280;6553;48.412;9.514;2022-08-18T02:28:16;72203.56;;;24.93
64600;BMP280;6553;48.412;9.514;2022-08-18T02:30:42;72206.38;;;24.93
64600;BMP280;6553;48.412;9.514;2022-08-18T02:33:10;72203.06;;;24.92
64600;BMP280;6553;48.412;9.514;2022-08-18T02:35:37;72205.31;;;24.92
64600;BMP280;6553;48.412;9.514;2022-08-18T02:38:06;72205.31;;;24.92
64600;BMP280;6553;48.412;9.514;2022-08-18T02:40:33;72200.25;;;24.92
64600;BMP280;6553;48.412;9.514;2022-08-18T02:43:07;72202.00;;;24.91
64600;BMP280;6553;48.412;9.514;2022-08-18T02:45:36;72203.19;;;24.90
64600;BMP280;6553;48.412;9.514;2022-08-18T02:48:03;72201.47;;;24.91
64600;BMP280;6553;48.412;9.514;2022-08-18T02:50:29;72203.19;;;24.90
64600;BMP280;6553;48.412;9.514;2022-08-18T02:52:54;72199.44;;;24.86
64600;BMP280;6553;48.412;9.514;2022-08-18T02:55:20;72193.22;;;24.88
64600;BMP280;6553;48.412;9.514;2022-08-18T02:57:48;72201.06;;;24.88
64600;BMP280;6553;48.412;9.514;2022-08-18T03:00:16;72203.72;;;24.90
64600;BMP280;6553;48.412;9.514;2022-08-18T03:02:48;72200.91;;;24.90
64600;BMP280;6553;48.412;9.514;2022-08-18T03:05:15;72203.72;;;24.90
64600;BMP280;6553;48.412;9.514;2022-08-18T03:07:41;72182.44;;;24.81
64600;BMP280;6553;48.412;9.514;2022-08-18T03:10:07;72198.91;;;24.86
64600;BMP280;6553;48.412;9.514;2022-08-18T03:12:35;72203.72;;;24.90
64600;BMP280;6553;48.412;9.514;2022-08-18T03:15:01;72199.84;;;24.89
64600;BMP280;6553;48.412;9.514;2022-08-18T03:17:28;72196.00;;;24.88
64600;BMP280;6553;48.412;9.514;2022-08-18T03:19:53;72202.13;;;24.89
64600;BMP280;6553;48.412;9.514;2022-08-18T03:22:19;72198.78;;;24.88
64600;BMP280;6553;48.412;9.514;2022-08-18T03:24:45;72203.31;;;24.87
64600;BMP280;6553;48.412;9.514;2022-08-18T03:27:11;72197.06;;;24.89
64600;BMP280;6553;48.412;9.514;2022-08-18T03:29:37;72204.38;;;24.88
64600;BMP280;6553;48.412;9.514;2022-08-18T03:32:05;72203.84;;;24.88
64600;BMP280;6553;48.412;9.514;2022-08-18T03:34:32;72199.31;;;24.89
64600;BMP280;6553;48.412;9.514;2022-08-18T03:36:58;72199.44;;;24.86
64600;BMP280;6553;48.412;9.514;2022-08-18T03:39:25;72201.59;;;24.88
64600;BMP280;6553;48.412;9.514;2022-08-18T03:41:53;72192.81;;;24.85
64600;BMP280;6553;48.412;9.514;2022-08-18T03:44:21;72201.59;;;24.88
64600;BMP280;6553;48.412;9.514;2022-08-18T03:46:49;72196.13;;;24.86
64600;BMP280;6553;48.412;9.514;2022-08-18T03:49:15;72193.34;;;24.86
64600;BMP280;6553;48.412;9.514;2022-08-18T03:51:45;72206.13;;;24.87
64600;BMP280;6553;48.412;9.514;2022-08-18T03:54:14;72197.19;;;24.87
64600;BMP280;6553;48.412;9.514;2022-08-18T03:56:42;72200.00;;;24.87
64600;BMP280;6553;48.412;9.514;2022-08-18T03:59:21;72200.00;;;24.87
64600;BMP280;6553;48.412;9.514;2022-08-18T04:01:52;72195.47;;;24.88
64600;BMP280;6553;48.412;9.514;2022-08-18T04:04:22;72200.53;;;24.87
64600;BMP280;6553;48.412;9.514;2022-08-18T04:06:54;72200.00;;;24.87
64600;BMP280;6553;48.412;9.514;2022-08-18T04:09:24;72198.91;;;24.86
64600;BMP280;6553;48.412;9.514;2022-08-18T04:11:50;72199.44;;;24.86
64600;BMP280;6553;48.412;9.514;2022-08-18T04:14:20;72202.25;;;24.86
64600;BMP280;6553;48.412;9.514;2022-08-18T04:16:48;72195.22;;;24.82
64600;BMP280;6553;48.412;9.514;2022-08-18T04:19:15;72196.81;;;24.84
64600;BMP280;6553;48.412;9.514;2022-08-18T04:21:44;72197.19;;;24.87
64600;BMP280;6553;48.412;9.514;2022-08-18T04:24:13;72200.66;;;24.85
64600;BMP280;6553;48.412;9.514;2022-08-18T04:26:45;72197.34;;;24.84
64600;BMP280;6553;48.412;9.514;2022-08-18T04:29:15;72196.81;;;24.84
64600;BMP280;6553;48.412;9.514;2022-08-18T04:31:41;72193.63;;;24.81
64600;BMP280;6553;48.412;9.514;2022-08-18T04:34:07;72203.97;;;24.85
64600;BMP280;6553;48.412;9.514;2022-08-18T04:36:35;72197.34;;;24.84
64600;BMP280;6553;48.412;9.514;2022-08-18T04:39:04;72197.34;;;24.84
64600;BMP280;6553;48.412;9.514;2022-08-18T04:41:30;72192.94;;;24.83
64600;BMP280;6553;48.412;9.514;2022-08-18T04:43:58;72196.13;;;24.86
64600;BMP280;6553;48.412;9.514;2022-08-18T04:46:26;72201.72;;;24.86
64600;BMP280;6553;48.412;9.514;2022-08-18T04:48:53;72198.41;;;24.85
64600;BMP280;6553;48.412;9.514;2022-08-18T04:51:26;72196.28;;;24.83
64600;BMP280;6553;48.412;9.514;2022-08-18T04:53:53;72192.41;;;24.82
64600;BMP280;6553;48.412;9.514;2022-08-18T04:56:33;72197.47;;;24.82
64600;BMP280;6553;48.412;9.514;2022-08-18T04:59:11;72200.78;;;24.82
64600;BMP280;6553;48.412;9.514;2022-08-18T05:01:44;72199.59;;;24.84
64600;BMP280;6553;48.412;9.514;2022-08-18T05:04:11;72193.63;;;24.81
64600;BMP280;6553;48.412;9.514;2022-08-18T05:06:38;72191.88;;;24.82
64600;BMP280;6553;48.412;9.514;2022-08-18T05:09:08;72195.22;;;24.82
64600;BMP280;6553;48.412;9.514;2022-08-18T05:11:36;72193.47;;;24.83
64600;BMP280;6553;48.412;9.514;2022-08-18T05:14:06;72191.50;;;24.78
64600;BMP280;6553;48.412;9.514;2022-08-18T05:16:35;72197.47;;;24.82
64600;BMP280;6553;48.412;9.514;2022-08-18T05:19:07;72194.69;;;24.82
64600;BMP280;6553;48.412;9.514;2022-08-18T05:21:34;72191.88;;;24.82
64600;BMP280;6553;48.412;9.514;2022-08-18T05:24:03;72196.28;;;24.83
64600;BMP280;6553;48.412;9.514;2022-08-18T05:26:29;72188.69;;;24.78
64600;BMP280;6553;48.412;9.514;2022-08-18T05:28:55;72188.69;;;24.78
64600;BMP280;6553;48.412;9.514;2022-08-18T05:31:24;72193.09;;;24.80
64600;BMP280;6553;48.412;9.514;2022-08-18T05:33:52;72194.69;;;24.82
64600;BMP280;6553;48.412;9.514;2022-08-18T05:36:45;72191.34;;;24.81
64600;BMP280;6553;48.412;9.514;2022-08-18T05:40:12;72190.81;;;24.81
64600;BMP280;6553;48.412;9.514;2022-08-18T05:42:40;72194.78;;;24.79
64600;BMP280;6553;48.412;9.514;2022-08-18T05:45:17;72190.81;;;24.81
64600;BMP280;6553;48.412;9.514;2022-08-18T05:47:43;72190.81;;;24.81
64600;BMP280;6553;48.412;9.514;2022-08-18T05:50:15;72195.88;;;24.80
64600;BMP280;6553;48.412;9.514;2022-08-18T05:52:52;72198.66;;;24.80
64600;BMP280;6553;48.412;9.514;2022-08-18T05:58:48;72190.41;;;24.77
64600;BMP280;6553;48.412;9.514;2022-08-18T06:01:22;72188.69;;;24.78
64600;BMP280;6553;48.412;9.514;2022-08-18T06:03:55;72190.28;;;24.80
64600;BMP280;6553;48.412;9.514;2022-08-18T06:06:26;72192.00;;;24.79
64600;BMP280;6553;48.412;9.514;2022-08-18T06:09:12;72193.75;;;24.78
64600;BMP280;6553;48.412;9.514;2022-08-18T06:11:38;72185.38;;;24.78
64600;BMP280;6553;48.412;9.514;2022-08-18T06:14:04;72192.53;;;24.79
64600;BMP280;6553;48.412;9.514;2022-08-18T06:19:49;72186.97;;;24.79
64600;BMP280;6553;48.412;9.514;2022-08-18T06:22:34;72195.88;;;24.80
64600;BMP280;6553;48.412;9.514;2022-08-18T06:25:31;72189.22;;;24.79
64600;BMP280;6553;48.412;9.514;2022-08-18T06:28:13;72185.91;;;24.78
64600;BMP280;6553;48.412;9.514;2022-08-18T06:31:11;72188.16;;;24.78
64600;BMP280;6553;48.412;9.514;2022-08-18T06:33:59;72184.81;;;24.77
64600;BMP280;6553;48.412;9.514;2022-08-18T06:37:00;72191.50;;;24.78
64600;BMP280;6553;48.412;9.514;2022-08-18T06:39:41;72190.41;;;24.77
64600;BMP280;6553;48.412;9.514;2022-08-18T06:42:09;72187.63;;;24.77
64600;BMP280;6553;48.412;9.514;2022-08-18T06:44:42;72190.94;;;24.78
64600;BMP280;6553;48.412;9.514;2022-08-18T06:50:36;72184.81;;;24.77
64600;BMP280;6553;48.412;9.514;2022-08-18T06:53:07;72188.69;;;24.78
64600;BMP280;6553;48.412;9.514;2022-08-18T06:55:38;72189.34;;;24.76
64600;BMP280;6553;48.412;9.514;2022-08-18T07:01:00;72187.63;;;24.77
64600;BMP280;6553;48.412;9.514;2022-08-18T07:03:53;72187.63;;;24.77
64600;BMP280;6553;48.412;9.514;2022-08-18T07:08:51;72190.94;;;24.78
64600;BMP280;6553;48.412;9.514;2022-08-18T07:11:32;72190.41;;;24.77
64600;BMP280;6553;48.412;9.514;2022-08-18T07:14:20;72189.91;;;24.77
64600;BMP280;6553;48.412;9.514;2022-08-18T07:16:47;72192.69;;;24.77
64600;BMP280;6553;48.412;9.514;2022-08-18T07:19:16;72189.91;;;24.77
64600;BMP280;6553;48.412;9.514;2022-08-18T07:24:39;72189.91;;;24.77
64600;BMP280;6553;48.412;9.514;2022-08-18T07:27:20;72193.75;;;24.78
64600;BMP280;6553;48.412;9.514;2022-08-18T07:35:25;72190.94;;;24.78
64600;BMP280;6553;48.412;9.514;2022-08-18T07:38:00;72190.94;;;24.78
64600;BMP280;6553;48.412;9.514;2022-08-18T07:40:32;72187.63;;;24.77
64600;BMP280;6553;48.412;9.514;2022-08-18T07:43:09;72194.28;;;24.78
64600;BMP280;6553;48.412;9.514;2022-08-18T07:45:46;72183.13;;;24.78
64600;BMP280;6553;48.412;9.514;2022-08-18T07:48:19;72184.81;;;24.77
64600;BMP280;6553;48.412;9.514;2022-08-18T07:53:59;72193.19;;;24.77
64600;BMP280;6553;48.412;9.514;2022-08-18T07:59:32;72196.41;;;24.81
64600;BMP280;6553;48.412;9.514;2022-08-18T08:05:13;72199.44;;;24.86
64600;BMP280;6553;48.412;9.514;2022-08-18T08:07:55;72202.63;;;24.89
64600;BMP280;6553;48.412;9.514;2022-08-18T08:10:30;72209.84;;;24.91
64600;BMP280;6553;48.412;9.514;2022-08-18T08:13:22;72202.91;;;24.95
64600;BMP280;6553;48.412;9.514;2022-08-18T08:16:09;72206.25;;;24.95
64600;BMP280;6553;48.412;9.514;2022-08-18T08:19:23;72206.91;;;24.93
64600;BMP280;6553;48.412;9.514;2022-08-18T08:25:33;72213.41;;;24.97
64600;BMP280;6553;48.412;9.514;2022-08-18T08:28:39;72212.88;;;24.96
64600;BMP280;6553;48.412;9.514;2022-08-18T08:31:31;72210.22;;;24.94
64600;BMP280;6553;48.412;9.514;2022-08-18T08:34:28;72204.09;;;24.93
64600;BMP280;6553;48.412;9.514;2022-08-18T08:37:11;72207.44;;;24.94
64600;BMP280;6553;48.412;9.514;2022-08-18T08:39:56;72208.50;;;24.95
64600;BMP280;6553;48.412;9.514;2022-08-18T08:42:54;72207.44;;;24.94
64600;BMP280;6553;48.412;9.514;2022-08-18T08:45:36;72207.97;;;24.94
64600;BMP280;6553;48.412;9.514;2022-08-18T08:48:13;72210.09;;;24.96
64600;BMP280;6553;48.412;9.514;2022-08-18T08:51:53;72208.38;;;24.97
64600;BMP280;6553;48.412;9.514;2022-08-18T08:54:15;72209.03;;;24.95
64600;BMP280;6553;48.412;9.514;2022-08-18T08:56:46;72211.16;;;24.97
64600;BMP280;6553;48.412;9.514;2022-08-18T08:59:18;72206.13;;;24.98
64600;BMP280;6553;48.412;9.514;2022-08-18T09:16:52;72218.06;;;25.04
64600;BMP280;6553;48.412;9.514;2022-08-18T09:19:53;72217.00;;;25.03
64600;BMP280;6553;48.412;9.514;2022-08-18T09:28:14;72216.47;;;25.02
64600;BMP280;6553;48.412;9.514;2022-08-18T09:39:32;72219.16;;;25.05
64600;BMP280;6553;48.412;9.514;2022-08-18T09:42:50;72215.41;;;25.01
64600;BMP280;6553;48.412;9.514;2022-08-18T09:48:33;72217.00;;;25.03
64600;BMP280;6553;48.412;9.514;2022-08-18T10:01:59;72221.25;;;25.07
64600;BMP280;6553;48.412;9.514;2022-08-18T10:04:37;72223.50;;;25.06
64600;BMP280;6553;48.412;9.514;2022-08-18T10:07:34;72214.63;;;25.06
64600;BMP280;6553;48.412;9.514;2022-08-18T10:13:04;72223.50;;;25.06
64600;BMP280;6553;48.412;9.514;2022-08-18T10:15:39;72221.78;;;25.07
64600;BMP280;6553;48.412;9.514;2022-08-18T10:19:16;72222.34;;;25.08
64600;BMP280;6553;48.412;9.514;2022-08-18T10:21:19;72221.78;;;25.07
64600;BMP280;6553;48.412;9.514;2022-08-18T10:29:01;72222.34;;;25.08
64600;BMP280;6553;48.412;9.514;2022-08-18T10:34:49;72222.88;;;25.08
64600;BMP280;6553;48.412;9.514;2022-08-18T10:40:22;72219.94;;;25.11
64600;BMP280;6553;48.412;9.514;2022-08-18T10:45:37;72228.31;;;25.11
64600;BMP280;6553;48.412;9.514;2022-08-18T10:51:12;72221.13;;;25.09
64600;BMP280;6553;48.412;9.514;2022-08-18T10:53:59;72218.84;;;25.10
64600;BMP280;6553;48.412;9.514;2022-08-18T10:56:49;72223.25;;;25.11
64600;BMP280;6553;48.412;9.514;2022-08-18T10:59:44;72228.31;;;25.11
64600;BMP280;6553;48.412;9.514;2022-08-18T11:02:37;72231.09;;;25.11
64600;BMP280;6553;48.412;9.514;2022-08-18T11:05:09;72235.50;;;25.12
64600;BMP280;6553;48.412;9.514;2022-08-18T11:07:36;72226.06;;;25.11
64600;BMP280;6553;48.412;9.514;2022-08-18T11:10:40;72224.31;;;25.12
64600;BMP280;6553;48.412;9.514;2022-08-18T11:16:27;72227.63;;;25.13
64600;BMP280;6553;48.412;9.514;2022-08-18T11:19:07;72227.13;;;25.12
64600;BMP280;6553;48.412;9.514;2022-08-18T11:29:35;72219.94;;;25.11
64600;BMP280;6553;48.412;9.514;2022-08-18T11:32:43;72224.31;;;25.12
64600;BMP280;6553;48.412;9.514;2022-08-18T11:35:18;72219.94;;;25.11
64600;BMP280;6553;48.412;9.514;2022-08-18T11:37:53;72225.66;;;25.08
64600;BMP280;6553;48.412;9.514;2022-08-18T11:46:35;72226.59;;;25.12
64600;BMP280;6553;48.412;9.514;2022-08-18T11:49:00;72224.31;;;25.12
64600;BMP280;6553;48.412;9.514;2022-08-18T11:52:23;72231.66;;;25.11
64600;BMP280;6553;48.412;9.514;2022-08-18T11:54:49;72230.97;;;25.13
64600;BMP280;6553;48.412;9.514;2022-08-18T11:57:41;72228.16;;;25.13
64600;BMP280;6553;48.412;9.514;2022-08-18T12:00:40;72230.84;;;25.16
64600;BMP280;6553;48.412;9.514;2022-08-18T12:03:16;72227.13;;;25.12
64600;BMP280;6553;48.412;9.514;2022-08-18T12:05:53;72227.13;;;25.12
64600;BMP280;6553;48.412;9.514;2022-08-18T12:08:37;72228.72;;;25.14
64600;BMP280;6553;48.412;9.514;2022-08-18T12:11:17;72225.91;;;25.14
64600;BMP280;6553;48.412;9.514;2022-08-18T12:13:47;72236.94;;;25.16
64600;BMP280;6553;48.412;9.514;2022-08-18T12:16:40;72229.09;;;25.17
64600;BMP280;6553;48.412;9.514;2022-08-18T12:19:09;72232.44;;;25.17
64600;BMP280;6553;48.412;9.514;2022-08-18T12:21:49;72233.13;;;25.15
64600;BMP280;6553;48.412;9.514;2022-08-18T12:24:29;72229.78;;;25.15
64600;BMP280;6553;48.412;9.514;2022-08-18T12:26:56;72223.66;;;25.14
64600;BMP280;6553;48.412;9.514;2022-08-18T12:29:24;72229.25;;;25.14
64600;BMP280;6553;48.412;9.514;2022-08-18T12:31:53;72224.31;;;25.12
64600;BMP280;6553;48.412;9.514;2022-08-18T12:34:22;72230.84;;;25.16
64600;BMP280;6553;48.412;9.514;2022-08-18T12:36:50;72230.19;;;25.18
64600;BMP280;6553;48.412;9.514;2022-08-18T12:39:17;72229.78;;;25.15
64600;BMP280;6553;48.412;9.514;2022-08-18T12:41:43;72221.53;;;25.12
64600;BMP280;6553;48.412;9.514;2022-08-18T12:44:09;72246.00;;;25.14
64600;BMP280;6553;48.412;9.514;2022-08-18T12:46:35;72228.72;;;25.14
64600;BMP280;6553;48.412;9.514;2022-08-18T12:49:03;72234.84;;;25.14
64600;BMP280;6553;48.412;9.514;2022-08-18T12:51:30;72230.31;;;25.15
64600;BMP280;6553;48.412;9.514;2022-08-18T12:53:56;72228.16;;;25.13
64600;BMP280;6553;48.412;9.514;2022-08-18T12:56:29;72233.63;;;25.16
64600;BMP280;6553;48.412;9.514;2022-08-18T12:58:58;72230.84;;;25.16
64600;BMP280;6553;48.412;9.514;2022-08-18T13:01:25;72231.34;;;25.16
64600;BMP280;6553;48.412;9.514;2022-08-18T13:03:52;72225.25;;;25.16
64600;BMP280;6553;48.412;9.514;2022-08-18T13:06:24;72234.16;;;25.16
64600;BMP280;6553;48.412;9.514;2022-08-18T13:08:51;72234.28;;;25.14
64600;BMP280;6553;48.412;9.514;2022-08-18T13:11:19;72228.72;;;25.14
64600;BMP280;6553;48.412;9.514;2022-08-18T13:13:45;72228.16;;;25.13
64600;BMP280;6553;48.412;9.514;2022-08-18T13:16:12;72229.25;;;25.14
64600;BMP280;6553;48.412;9.514;2022-08-18T13:18:39;72231.34;;;25.16
64600;BMP280;6553;48.412;9.514;2022-08-18T13:21:10;72235.91;;;25.15
64600;BMP280;6553;48.412;9.514;2022-08-18T13:23:37;72237.47;;;25.17
64600;BMP280;6553;48.412;9.514;2022-08-18T13:26:06;72229.78;;;25.15
64600;BMP280;6553;48.412;9.514;2022-08-18T13:28:33;72229.78;;;25.15
64600;BMP280;6553;48.412;9.514;2022-08-18T13:31:00;72227.63;;;25.13
64600;BMP280;6553;48.412;9.514;2022-08-18T13:33:26;72238.03;;;25.17
64600;BMP280;6553;48.412;9.514;2022-08-18T13:35:53;72232.44;;;25.17
64600;BMP280;6553;48.412;9.514;2022-08-18T13:38:19;72229.63;;;25.17
64600;BMP280;6553;48.412;9.514;2022-08-18T13:40:52;72236.84;;;25.19
64600;BMP280;6553;48.412;9.514;2022-08-18T13:43:25;72232.97;;;25.18
64600;BMP280;6553;48.412;9.514;2022-08-18T13:45:56;72229.63;;;25.17
64600;BMP280;6553;48.412;9.514;2022-08-18T13:48:23;72231.91;;;25.17
64600;BMP280;6553;48.412;9.514;2022-08-18T13:50:53;72225.53;;;25.11
64600;BMP280;6553;48.412;9.514;2022-08-18T13:53:20;72230.84;;;25.16
64600;BMP280;6553;48.412;9.514;2022-08-18T13:55:47;72227.53;;;25.15
64600;BMP280;6553;48.412;9.514;2022-08-18T13:58:13;72238.56;;;25.18
64600;BMP280;6553;48.412;9.514;2022-08-18T14:00:40;72232.44;;;25.17
64600;BMP280;6553;48.412;9.514;2022-08-18T14:03:09;72232.44;;;25.17
64600;BMP280;6553;48.412;9.514;2022-08-18T14:05:36;72231.91;;;25.17
64600;BMP280;6553;48.412;9.514;2022-08-18T14:08:03;72237.34;;;25.19
64600;BMP280;6553;48.412;9.514;2022-08-18T14:10:31;72237.22;;;25.22
64600;BMP280;6553;48.412;9.514;2022-08-18T14:13:00;72235.06;;;25.20
64600;BMP280;6553;48.412;9.514;2022-08-18T14:15:28;72235.06;;;25.20
64600;BMP280;6553;48.412;9.514;2022-08-18T14:17:55;72236.84;;;25.19
64600;BMP280;6553;48.412;9.514;2022-08-18T14:20:20;72242.44;;;25.19
64600;BMP280;6553;48.412;9.514;2022-08-18T14:23:04;72238.56;;;25.18
64600;BMP280;6553;48.412;9.514;2022-08-18T14:25:49;72236.84;;;25.19
64600;BMP280;6553;48.412;9.514;2022-08-18T14:28:34;72226.31;;;25.17
64600;BMP280;6553;48.412;9.514;2022-08-18T14:31:01;72241.75;;;25.21
64600;BMP280;6553;48.412;9.514;2022-08-18T14:33:31;72231.66;;;25.22
64600;BMP280;6553;48.412;9.514;2022-08-18T14:35:57;72234.03;;;25.19
64600;BMP280;6553;48.412;9.514;2022-08-18T14:38:23;72238.94;;;25.21
64600;BMP280;6553;48.412;9.514;2022-08-18T14:40:49;72233.34;;;25.21
64600;BMP280;6553;48.412;9.514;2022-08-18T14:43:18;72241.19;;;25.20
64600;BMP280;6553;48.412;9.514;2022-08-18T14:45:46;72236.00;;;25.23
64600;BMP280;6553;48.412;9.514;2022-08-18T14:48:19;72239.34;;;25.24
64600;BMP280;6553;48.412;9.514;2022-08-18T14:50:54;72234.97;;;25.22
64600;BMP280;6553;48.412;9.514;2022-08-18T14:53:25;72235.63;;;25.20
64600;BMP280;6553;48.412;9.514;2022-08-18T14:55:53;72236.84;;;25.19
64600;BMP280;6553;48.412;9.514;2022-08-18T14:58:26;72231.78;;;25.19
64600;BMP280;6553;48.412;9.514;2022-08-18T15:01:05;72231.34;;;25.16
64600;BMP280;6553;48.412;9.514;2022-08-18T15:03:34;72229.63;;;25.17
64600;BMP280;6553;48.412;9.514;2022-08-18T15:06:03;72225.38;;;25.13
64600;BMP280;6553;48.412;9.514;2022-08-18T15:08:29;72234.16;;;25.16
64600;BMP280;6553;48.412;9.514;2022-08-18T15:10:56;72224.72;;;25.15
64600;BMP280;6553;48.412;9.514;2022-08-18T15:13:23;72228.16;;;25.13
64600;BMP280;6553;48.412;9.514;2022-08-18T15:15:50;72226.31;;;25.17
64600;BMP280;6553;48.412;9.514;2022-08-18T15:18:16;72229.25;;;25.14
64600;BMP280;6553;48.412;9.514;2022-08-18T15:20:44;72227.63;;;25.13
64600;BMP280;6553;48.412;9.514;2022-08-18T15:23:28;72228.72;;;25.14
64600;BMP280;6553;48.412;9.514;2022-08-18T15:26:21;72228.72;;;25.14
64600;BMP280;6553;48.412;9.514;2022-08-18T15:28:48;72230.31;;;25.15
64600;BMP280;6553;48.412;9.514;2022-08-18T15:31:14;72230.97;;;25.13
64600;BMP280;6553;48.412;9.514;2022-08-18T15:33:40;72225.53;;;25.11
64600;BMP280;6553;48.412;9.514;2022-08-18T15:36:07;72227.63;;;25.13
64600;BMP280;6553;48.412;9.514;2022-08-18T15:38:34;72233.22;;;25.13
64600;BMP280;6553;48.412;9.514;2022-08-18T15:41:00;72227.13;;;25.12
64600;BMP280;6553;48.412;9.514;2022-08-18T15:43:30;72232.69;;;25.12
64600;BMP280;6553;48.412;9.514;2022-08-18T15:45:58;72223.81;;;25.12
64600;BMP280;6553;48.412;9.514;2022-08-18T15:48:27;72230.44;;;25.13
64600;BMP280;6553;48.412;9.514;2022-08-18T15:50:53;72227.63;;;25.13
64600;BMP280;6553;48.412;9.514;2022-08-18T15:53:24;72225.38;;;25.13
64600;BMP280;6553;48.412;9.514;2022-08-18T15:55:50;72240.41;;;25.14
64600;BMP280;6553;48.412;9.514;2022-08-18T15:58:17;72228.16;;;25.13
64600;BMP280;6553;48.412;9.514;2022-08-18T16:00:45;72228.72;;;25.14
64600;BMP280;6553;48.412;9.514;2022-08-18T16:03:14;72229.25;;;25.14
64600;BMP280;6553;48.412;9.514;2022-08-18T16:05:52;72232.69;;;25.12
64600;BMP280;6553;48.412;9.514;2022-08-18T16:08:22;72228.16;;;25.13
64600;BMP280;6553;48.412;9.514;2022-08-18T16:10:50;72227.63;;;25.13
64600;BMP280;6553;48.412;9.514;2022-08-18T16:13:17;72223.81;;;25.12
64600;BMP280;6553;48.412;9.514;2022-08-18T16:15:44;72230.44;;;25.13
64600;BMP280;6553;48.412;9.514;2022-08-18T16:18:17;72224.31;;;25.12
64600;BMP280;6553;48.412;9.514;2022-08-18T16:20:45;72230.44;;;25.13
64600;BMP280;6553;48.412;9.514;2022-08-18T16:23:12;72227.78;;;25.10
64600;BMP280;6553;48.412;9.514;2022-08-18T16:25:42;72224.84;;;25.13
64600;BMP280;6553;48.412;9.514;2022-08-18T16:28:08;72228.31;;;25.11
64600;BMP280;6553;48.412;9.514;2022-08-18T16:30:34;72227.63;;;25.13
64600;BMP280;6553;48.412;9.514;2022-08-18T16:33:04;72226.19;;;25.09
64600;BMP280;6553;48.412;9.514;2022-08-18T16:35:32;72226.06;;;25.11
64600;BMP280;6553;48.412;9.514;2022-08-18T16:38:07;72222.72;;;25.11
64600;BMP280;6553;48.412;9.514;2022-08-18T16:40:35;72233.75;;;25.13
64600;BMP280;6553;48.412;9.514;2022-08-18T16:43:01;72232.19;;;25.12
64600;BMP280;6553;48.412;9.514;2022-08-18T16:45:27;72226.59;;;25.12
64600;BMP280;6553;48.412;9.514;2022-08-18T16:47:54;72226.19;;;25.09
64600;BMP280;6553;48.412;9.514;2022-08-18T16:50:20;72226.06;;;25.11
64600;BMP280;6553;48.412;9.514;2022-08-18T16:52:48;72224.44;;;25.10